createdAt,value
2023-04-23T00:01:14.948Z,9.08
2023-04-23T00:03:43.002Z,9.03
2023-04-23T00:06:11.250Z,8.95
2023-04-23T00:08:41.756Z,8.96
2023-04-23T00:11:09.402Z,8.93
2023-04-23T00:13:36.484Z,8.92
2023-04-23T00:16:03.555Z,8.89
2023-04-23T00:18:30.415Z,8.90
2023-04-23T00:20:57.631Z,8.95
2023-04-23T00:23:24.358Z,8.95
2023-04-23T00:25:51.127Z,8.91
2023-04-23T00:28:19.167Z,8.86
2023-04-23T00:30:47.038Z,8.75
2023-04-23T00:33:13.718Z,8.71
2023-04-23T00:35:40.762Z,8.73
2023-04-23T00:38:07.702Z,8.66
2023-04-23T00:40:34.375Z,8.57
2023-04-23T00:43:01.289Z,8.60
2023-04-23T00:45:28.178Z,8.58
2023-04-23T00:47:56.464Z,8.55
2023-04-23T00:50:23.430Z,8.69
2023-04-23T00:52:50.384Z,8.58
2023-04-23T00:55:17.374Z,8.56
2023-04-23T00:57:44.184Z,8.59
2023-04-23T01:00:14.094Z,8.48
2023-04-23T01:02:42.710Z,8.47
2023-04-23T01:05:11.505Z,8.50
2023-04-23T01:07:38.623Z,8.49
2023-04-23T01:10:06.089Z,8.49
2023-04-23T01:12:33.745Z,8.46
2023-04-23T01:15:00.800Z,8.45
2023-04-23T01:17:27.741Z,8.41
2023-04-23T01:19:54.657Z,8.43
2023-04-23T01:22:21.831Z,8.43
2023-04-23T01:24:49.148Z,8.36
2023-04-23T01:27:18.627Z,8.39
2023-04-23T01:29:45.589Z,8.34
2023-04-23T01:32:12.505Z,8.26
2023-04-23T01:34:40.277Z,8.27
2023-04-23T01:37:07.686Z,8.26
2023-04-23T01:39:34.542Z,8.23
2023-04-23T01:42:01.539Z,8.20
2023-04-23T01:44:28.689Z,8.26
2023-04-23T01:46:58.706Z,8.17
2023-04-23T01:49:25.650Z,8.19
2023-04-23T01:51:52.441Z,8.14
2023-04-23T01:54:19.694Z,8.23
2023-04-23T01:56:46.722Z,8.17
2023-04-23T01:59:13.694Z,8.08
2023-04-23T02:01:45.692Z,8.07
2023-04-23T02:04:14.063Z,7.99
2023-04-23T02:06:42.732Z,7.93
2023-04-23T02:09:09.931Z,7.92
2023-04-23T02:11:36.641Z,7.93
2023-04-23T02:14:03.900Z,7.95
2023-04-23T02:16:31.343Z,7.86
2023-04-23T02:18:58.374Z,7.85
2023-04-23T02:21:26.381Z,7.75
2023-04-23T02:23:53.481Z,7.69
2023-04-23T02:26:20.490Z,7.66
2023-04-23T02:28:50.288Z,7.63
2023-04-23T02:31:18.075Z,7.66
2023-04-23T02:33:47.266Z,7.63
2023-04-23T02:36:14.175Z,7.59
2023-04-23T02:38:42.661Z,7.69
2023-04-23T02:41:09.521Z,7.65
2023-04-23T02:43:36.644Z,7.58
2023-04-23T02:46:08.513Z,7.61
2023-04-23T02:48:41.018Z,7.52
2023-04-23T02:51:10.858Z,7.56
2023-04-23T02:53:37.763Z,7.45
2023-04-23T02:56:04.927Z,7.41
2023-04-23T02:58:34.977Z,7.48
2023-04-23T03:01:02.271Z,7.37
2023-04-23T03:03:32.495Z,7.34
2023-04-23T03:06:00.994Z,7.29
2023-04-23T03:08:28.580Z,7.29
2023-04-23T03:10:57.695Z,7.29
2023-04-23T03:13:25.312Z,7.28
2023-04-23T03:15:53.362Z,7.19
2023-04-23T03:18:20.835Z,7.14
2023-04-23T03:20:49.413Z,7.08
2023-04-23T03:23:16.914Z,7.00
2023-04-23T03:25:43.925Z,6.89
2023-04-23T03:28:10.848Z,6.79
2023-04-23T03:30:38.242Z,6.71
2023-04-23T03:33:05.260Z,6.65
2023-04-23T03:35:32.320Z,6.38
2023-04-23T03:37:59.339Z,6.42
2023-04-23T03:40:26.352Z,6.24
2023-04-23T03:42:53.361Z,6.15
2023-04-23T03:45:23.416Z,6.08
2023-04-23T03:47:50.275Z,6.00
2023-04-23T03:50:19.609Z,5.85
2023-04-23T03:52:46.530Z,5.91
2023-04-23T03:55:13.387Z,5.69
2023-04-23T03:57:40.204Z,5.65
2023-04-23T04:00:12.018Z,5.64
2023-04-23T04:02:39.809Z,5.50
2023-04-23T04:05:07.843Z,5.48
2023-04-23T04:07:35.834Z,5.49
2023-04-23T04:10:03.437Z,5.60
2023-04-23T04:12:30.497Z,5.54
2023-04-23T04:15:00.158Z,5.58
2023-04-23T04:17:27.363Z,5.65
2023-04-23T04:19:54.477Z,5.89
2023-04-23T04:22:21.409Z,6.03
2023-04-23T04:24:52.311Z,6.17
2023-04-23T04:27:22.416Z,6.25
2023-04-23T04:29:52.182Z,6.43
2023-04-23T04:32:22.563Z,6.47
2023-04-23T04:34:50.307Z,6.49
2023-04-23T04:37:22.614Z,6.50
2023-04-23T04:39:49.716Z,6.53
2023-04-23T04:42:16.885Z,6.55
2023-04-23T04:44:44.070Z,6.56
2023-04-23T04:47:11.470Z,6.61
2023-04-23T04:49:38.580Z,6.65
2023-04-23T04:52:05.880Z,6.67
2023-04-23T04:54:33.028Z,6.78
2023-04-23T04:57:00.119Z,6.89
2023-04-23T04:59:27.240Z,6.87
2023-04-23T05:01:54.530Z,6.80
2023-04-23T05:04:21.716Z,6.83
2023-04-23T05:06:48.760Z,7.01
2023-04-23T05:09:15.756Z,6.91
2023-04-23T05:11:43.294Z,7.21
2023-04-23T05:14:10.533Z,7.20
2023-04-23T05:16:38.313Z,7.30
2023-04-23T05:19:05.313Z,7.41
2023-04-23T05:21:32.255Z,7.47
2023-04-23T05:24:03.531Z,7.68
2023-04-23T05:26:30.488Z,7.86
2023-04-23T05:28:59.968Z,7.88
2023-04-23T05:31:28.829Z,8.11
2023-04-23T05:33:56.754Z,8.27
2023-04-23T05:36:24.266Z,8.58
2023-04-23T05:38:51.298Z,8.66
2023-04-23T05:41:21.258Z,8.87
2023-04-23T05:43:48.412Z,8.98
2023-04-23T05:46:15.487Z,9.14
2023-04-23T05:48:42.614Z,9.27
2023-04-23T05:51:10.739Z,9.38
2023-04-23T05:53:38.115Z,9.46
2023-04-23T05:56:06.898Z,9.46
2023-04-23T05:58:35.492Z,9.62
2023-04-23T06:01:05.275Z,9.79
2023-04-23T06:03:32.866Z,10.07
2023-04-23T06:06:00.265Z,10.29
2023-04-23T06:08:27.491Z,10.28
2023-04-23T06:10:56.689Z,10.48
2023-04-23T06:13:28.405Z,10.65
2023-04-23T06:15:55.523Z,10.55
2023-04-23T06:18:22.723Z,10.16
2023-04-23T06:20:52.845Z,9.98
2023-04-23T06:23:22.684Z,9.95
2023-04-23T06:25:49.901Z,10.08
2023-04-23T06:28:17.648Z,10.26
2023-04-23T06:30:44.747Z,10.35
2023-04-23T06:33:23.092Z,10.28
2023-04-23T06:35:53.042Z,10.11
2023-04-23T06:38:23.360Z,10.07
2023-04-23T06:40:50.632Z,10.04
2023-04-23T06:43:19.422Z,9.86
2023-04-23T06:45:49.447Z,9.84
2023-04-23T06:48:22.859Z,9.86
2023-04-23T06:50:50.287Z,10.00
2023-04-23T06:53:20.524Z,10.27
2023-04-23T06:55:50.498Z,10.40
2023-04-23T06:58:24.258Z,10.70
2023-04-23T07:00:51.710Z,10.78
2023-04-23T07:03:22.006Z,10.81
2023-04-23T07:05:49.512Z,10.82
2023-04-23T07:08:20.448Z,10.85
2023-04-23T07:10:47.700Z,11.20
2023-04-23T07:13:15.432Z,11.58
2023-04-23T07:15:43.091Z,12.02
2023-04-23T07:18:10.351Z,12.21
2023-04-23T07:20:45.445Z,12.22
2023-04-23T07:23:13.423Z,12.65
2023-04-23T07:25:40.679Z,13.02
2023-04-23T07:28:12.282Z,13.36
2023-04-23T07:30:40.262Z,13.26
2023-04-23T07:33:08.997Z,12.95
2023-04-23T07:35:36.185Z,12.85
2023-04-23T07:38:10.311Z,12.85
2023-04-23T07:40:43.687Z,12.94
2023-04-23T07:43:18.467Z,12.91
2023-04-23T07:45:46.687Z,12.90
2023-04-23T07:48:19.730Z,13.07
2023-04-23T07:50:50.138Z,13.20
2023-04-23T07:53:24.735Z,13.09
2023-04-23T07:55:55.277Z,12.91
2023-04-23T07:58:30.323Z,12.49
2023-04-23T08:03:52.440Z,13.13
2023-04-23T08:09:09.009Z,13.41
2023-04-23T08:11:43.533Z,13.36
2023-04-23T08:14:12.654Z,13.26
2023-04-23T08:16:49.357Z,13.66
2023-04-23T08:19:20.944Z,13.97
2023-04-23T08:24:37.781Z,14.79
2023-04-23T08:32:41.663Z,13.52
2023-04-23T08:35:16.487Z,13.61
2023-04-23T08:37:51.418Z,13.69
2023-04-23T08:40:26.500Z,13.91
2023-04-23T08:43:15.231Z,13.75
2023-04-23T08:51:41.581Z,13.50
2023-04-23T09:19:27.852Z,12.88
2023-04-23T09:21:54.689Z,12.48
2023-04-23T09:24:25.131Z,12.19
2023-04-23T09:26:52.921Z,12.01
2023-04-23T09:29:23.299Z,12.10
2023-04-23T09:31:53.201Z,12.39
2023-04-23T09:34:23.385Z,12.88
2023-04-23T09:36:51.789Z,13.69
2023-04-23T09:39:22.170Z,14.44
2023-04-23T09:41:48.886Z,15.56
2023-04-23T09:44:22.469Z,15.67
2023-04-23T09:46:50.806Z,15.69
2023-04-23T09:49:30.974Z,15.22
2023-04-23T09:52:10.637Z,14.97
2023-04-23T09:54:38.808Z,14.32
2023-04-23T09:59:57.447Z,13.87
2023-04-23T10:02:51.008Z,13.83
2023-04-23T10:05:27.606Z,13.98
2023-04-23T10:08:09.607Z,14.06
2023-04-23T10:11:05.966Z,14.29
2023-04-23T10:13:41.908Z,14.44
2023-04-23T10:16:42.021Z,14.59
2023-04-23T10:25:32.714Z,15.34
2023-04-23T10:36:09.863Z,19.23
2023-04-23T10:38:42.934Z,19.41
2023-04-23T10:41:22.425Z,19.40
2023-04-23T10:43:48.990Z,18.38
2023-04-23T10:46:49.536Z,17.71
2023-04-23T10:52:20.819Z,20.53
2023-04-23T10:57:37.136Z,19.66
2023-04-23T11:00:06.688Z,20.91
2023-04-23T11:02:45.186Z,21.35
2023-04-23T11:39:36.273Z,18.91
2023-04-23T11:42:05.048Z,18.89
2023-04-23T11:53:00.382Z,18.56
2023-04-23T11:55:38.024Z,18.64
2023-04-23T11:58:08.742Z,18.89
2023-04-23T12:03:22.975Z,19.88
2023-04-23T12:05:51.250Z,20.72
2023-04-23T12:16:56.354Z,21.78
2023-04-23T12:19:35.306Z,22.43
2023-04-23T12:27:36.149Z,24.99
2023-04-23T17:04:27.099Z,11.37
2023-04-23T17:06:56.890Z,11.02
2023-04-23T17:09:26.984Z,10.76
2023-04-23T17:11:53.956Z,10.54
2023-04-23T17:14:20.916Z,10.58
2023-04-23T17:16:47.685Z,10.38
2023-04-23T17:19:14.277Z,10.26
2023-04-23T17:21:41.038Z,10.01
2023-04-23T17:24:07.659Z,9.70
2023-04-23T17:26:34.278Z,9.59
2023-04-23T17:29:00.851Z,9.49
2023-04-23T17:31:27.540Z,9.37
2023-04-23T17:33:55.500Z,9.41
2023-04-23T17:36:22.195Z,9.30
2023-04-23T17:38:48.795Z,9.23
2023-04-23T17:41:16.967Z,9.26
2023-04-23T17:43:43.625Z,9.25
2023-04-23T17:46:10.277Z,9.12
2023-04-23T17:48:36.910Z,9.12
2023-04-23T17:51:03.636Z,9.06
2023-04-23T17:53:30.890Z,9.07
2023-04-23T17:56:02.598Z,9.10
2023-04-23T17:58:30.693Z,9.15
2023-04-23T18:00:57.562Z,9.14
2023-04-23T18:03:24.670Z,9.19
2023-04-23T18:05:51.515Z,9.15
2023-04-23T18:08:19.571Z,9.22
2023-04-23T18:10:46.288Z,9.16
2023-04-23T18:13:13.845Z,9.20
2023-04-23T18:15:42.106Z,9.18
2023-04-23T18:18:09.266Z,9.18
2023-04-23T18:20:38.617Z,9.16
2023-04-23T18:23:06.791Z,9.18
2023-04-23T18:25:33.777Z,9.19
2023-04-23T18:28:00.444Z,9.17
2023-04-23T18:30:27.056Z,9.09
2023-04-23T18:33:24.580Z,9.09
2023-04-23T18:35:55.500Z,9.11
2023-04-23T18:38:25.553Z,9.06
2023-04-23T18:40:52.230Z,9.05
2023-04-23T18:43:18.905Z,8.96
2023-04-23T18:45:45.497Z,9.04
2023-04-23T18:48:34.112Z,9.08
2023-04-23T18:51:05.889Z,9.09
2023-04-23T18:53:32.802Z,9.07
2023-04-23T18:55:59.446Z,9.09
2023-04-23T18:58:26.120Z,9.07
2023-04-23T19:00:52.685Z,9.07
2023-04-23T19:03:26.873Z,9.13
2023-04-23T19:05:54.043Z,9.13
2023-04-23T19:08:21.342Z,9.16
2023-04-23T19:10:48.040Z,9.09
2023-04-23T19:13:14.708Z,9.18
2023-04-23T19:15:41.545Z,9.25
2023-04-23T19:18:08.386Z,9.24
2023-04-23T19:20:35.069Z,9.28
2023-04-23T19:23:03.901Z,9.23
2023-04-23T19:25:30.793Z,9.22
2023-04-23T19:27:57.503Z,9.21
2023-04-23T19:30:24.153Z,9.22
2023-04-23T19:32:50.893Z,9.36
2023-04-23T19:35:17.815Z,9.21
2023-04-23T19:37:44.563Z,9.24
2023-04-23T19:40:12.049Z,9.29
2023-04-23T19:42:39.338Z,9.23
2023-04-23T19:45:06.397Z,9.29
2023-04-23T19:47:34.965Z,9.39
2023-04-23T19:50:01.718Z,9.38
2023-04-23T19:52:29.131Z,9.45
2023-04-23T19:54:55.941Z,9.36
2023-04-23T19:57:22.847Z,9.25
2023-04-23T19:59:50.238Z,9.24
2023-04-23T20:02:17.239Z,9.15
2023-04-23T20:04:44.178Z,9.15
2023-04-23T20:07:11.186Z,9.17
2023-04-23T20:09:37.878Z,9.20
2023-04-23T20:12:05.114Z,9.21
2023-04-23T20:14:32.020Z,9.15
2023-04-23T20:16:58.969Z,9.12
2023-04-23T20:19:26.306Z,9.21
2023-04-23T20:21:53.307Z,9.20
2023-04-23T20:24:22.858Z,9.22
2023-04-23T20:26:49.659Z,9.24
2023-04-23T20:29:16.396Z,9.25
2023-04-23T20:31:43.401Z,9.35
2023-04-23T20:34:11.163Z,9.37
2023-04-23T20:36:38.977Z,9.41
2023-04-23T20:39:05.789Z,9.41
2023-04-23T20:41:36.624Z,9.44
2023-04-23T20:44:05.323Z,9.43
2023-04-23T20:46:32.847Z,9.44
2023-04-23T20:49:03.978Z,9.44
2023-04-23T20:51:34.732Z,9.54
2023-04-23T20:54:02.166Z,9.44
2023-04-23T20:56:29.495Z,9.44
2023-04-23T20:58:57.809Z,9.24
2023-04-23T21:01:25.407Z,9.13
2023-04-23T21:03:53.990Z,8.92
2023-04-23T21:06:21.707Z,8.90
2023-04-23T21:08:48.486Z,8.85
2023-04-23T21:11:18.295Z,8.85
2023-04-23T21:13:46.157Z,8.91
2023-04-23T21:16:13.334Z,8.91
2023-04-23T21:18:41.650Z,8.94
2023-04-23T21:21:08.513Z,9.07
2023-04-23T21:23:35.828Z,8.95
2023-04-23T21:26:03.392Z,8.94
2023-04-23T21:28:33.827Z,8.83
2023-04-23T21:31:11.558Z,8.80
2023-04-23T21:33:40.831Z,8.68
2023-04-23T21:36:08.069Z,8.56
2023-04-23T21:38:35.144Z,8.71
2023-04-23T21:41:03.254Z,8.60
2023-04-23T21:43:35.685Z,8.64
2023-04-23T21:46:02.666Z,8.43
2023-04-23T21:48:32.280Z,8.32
2023-04-23T21:50:59.376Z,8.32
2023-04-23T21:53:28.594Z,8.17
2023-04-23T21:55:57.758Z,8.29
2023-04-23T21:58:25.053Z,8.23
2023-04-23T22:00:55.719Z,8.48
2023-04-23T22:03:31.335Z,8.43
2023-04-23T22:06:08.792Z,8.62
2023-04-23T22:08:43.757Z,8.49
2023-04-23T22:11:17.391Z,8.47
2023-04-23T22:13:51.197Z,8.45
2023-04-23T22:16:28.262Z,8.41
2023-04-23T22:18:57.137Z,8.49
2023-04-23T22:21:24.367Z,8.51
2023-04-23T22:23:51.935Z,8.59
2023-04-23T22:26:21.740Z,8.55
2023-04-23T22:28:52.190Z,8.62
2023-04-23T22:31:24.470Z,8.56
2023-04-23T22:33:57.092Z,8.42
2023-04-23T22:36:31.719Z,8.30
2023-04-23T22:39:10.021Z,8.13
2023-04-23T22:41:46.165Z,8.19
2023-04-23T22:44:19.203Z,8.08
2023-04-23T22:46:46.561Z,8.07
2023-04-23T22:49:17.117Z,8.12
2023-04-23T22:51:55.407Z,8.11
2023-04-23T22:54:23.059Z,8.20
2023-04-23T22:59:38.941Z,7.87
2023-04-23T23:02:10.812Z,7.90
2023-04-23T23:04:45.400Z,7.66
2023-04-23T23:07:19.477Z,7.65
2023-04-23T23:09:47.474Z,7.60
2023-04-23T23:14:59.712Z,7.44
2023-04-23T23:20:52.147Z,7.37
2023-04-23T23:34:40.194Z,7.48
2023-04-23T23:45:54.774Z,7.76
2023-04-23T23:51:10.886Z,7.74
